Redding, Iowa
Current Conditions -  °F | °C
As of 6:43 AM on Monday 24 Nov 2014 (Local Time) from KLWD Reporting Station
Overcast Overcast  
Wind Chill: 15°   Ceiling: 3000
Heat Index: 28°   Visibility: 10mi
Dew Point: 21°   Wind: 21mph
Humidity: 75%   Direction: 290°WNW
Pressure: 29.51"   Gusts: 31mph
Location:  40.6°N, 94.39°W
Report Text: KLWD 241243Z AUTO 29018G27KT 10SM OVC030 M02/M06 A2951 RMK AO2 PK WND 30027/1240 T10221061
Loading
Personal Weather Stations






























Interactive Weather Map New forecast layout! Learn more

10-Day Weather Forecast

Advertisements
Track Severe Weather on mobile